Portada
METAR-TAF:

METAR-TAF

Aeropuertos :

Aeropuerto Internacional de Hong Kong

Hong Kong, China

latitud: 22-19N, longitud: 113-55E, altitud: 9 m

Observación

El informe se hizo hace 19 minutos, a las 09:30 UTC
Viento 14 kt del suroeste
Temperatura 30°C
Humedad 66%
Presión 1007 hPa
Visibilidad 10 km o más
Escasas nubes a una altura de 1800 ft

METAR: VHHH 080930Z 22014KT 9999 FEW018 30/23 Q1007 NOSIG

Hora: 17:49 (09:49 UTC)

Pronóstico

El informe se hizo hace 4 horas y 49 minutos, a las 05:00 UTC
Pronóstico válido del 08 a las 06 UTC al 09 a las 12 UTC
Viento 10 kt del suroeste
Visibilidad 10 km o más
Escasas nubes a una altura de 2000 ft
Temporalmente
del 08 a las 12 UTC al 08 a las 21 UTC
Viento 5 kt con dirección variable

TAF: VHHH 080500Z 0806/0912 22010KT 9999 FEW020 TX32/0806Z TX32/0906Z TN26/0822Z TEMPO 0812/0821 VRB05KT

Observaciones y pronósticos meteorológicos de más de 4000 aeropuertos (mensajes METAR y TAF).

Los puntos amarillos y rojos representan las estaciones disponibles.

Ponga el ratón en el punto deseado para ver el nombre de la estación.

Haga clic para ver las observaciones y los pronósticos meteorológicos.

Para cambiar el mapa : haga clic en los botones verdes con una cruz de color negro para hacer un zoom, en el botón verde con un guión para alejar o en las flechas verdes para mapas adyacentes.


METAR-TAF: